Time;durP1;ratioP1;P1;durP2;ratioP2;P2;SDS_P1;SDS_P2;PMS_P1;PMS_P2;Temp;Humidity;BMP_temperature;BMP_pressure;BME280_temperature;BME280_humidity;BME280_pressure;Samples;Min_cycle;Max_cycle;Signal;HPM_P1;HPM_P2
2021/03/20 00:01:03;;;;;;;11.70;5.33;;;2.60;94.60;;;;;;5055526;28;20372;-78
2021/03/20 00:03:30;;;;;;;10.30;4.93;;;2.60;94.40;;;;;;5073984;28;20048;-76
2021/03/20 00:05:57;;;;;;;8.07;5.00;;;2.70;94.30;;;;;;5074909;28;20048;-77
2021/03/20 00:08:24;;;;;;;7.07;5.43;;;2.70;94.20;;;;;;5062730;28;20029;-78
2021/03/20 00:10:53;;;;;;;9.07;5.20;;;2.70;94.20;;;;;;5080434;28;20060;-77
2021/03/20 00:13:21;;;;;;;8.77;5.93;;;2.60;94.20;;;;;;5047326;28;20025;-77
2021/03/20 00:15:49;;;;;;;8.77;5.40;;;2.60;94.20;;;;;;5039438;28;20037;-79
2021/03/20 00:18:15;;;;;;;8.77;5.10;;;2.60;94.20;;;;;;5059034;28;20036;-76
2021/03/20 00:20:43;;;;;;;8.63;5.00;;;2.60;94.20;;;;;;5058587;28;20044;-76
2021/03/20 00:23:10;;;;;;;6.70;5.00;;;2.60;94.10;;;;;;5081653;28;20028;-76
2021/03/20 00:25:38;;;;;;;9.30;6.13;;;2.70;94.10;;;;;;5077053;28;20024;-78
2021/03/20 00:28:07;;;;;;;10.43;5.20;;;2.70;94.00;;;;;;5026767;28;20036;-77
2021/03/20 00:30:34;;;;;;;8.90;5.13;;;2.70;93.90;;;;;;5057531;28;20039;-78
2021/03/20 00:33:00;;;;;;;11.07;5.23;;;2.80;93.90;;;;;;5076483;28;20052;-77
2021/03/20 00:35:27;;;;;;;11.30;5.53;;;2.80;93.80;;;;;;5057965;28;20080;-76
2021/03/20 00:37:54;;;;;;;10.10;5.03;;;2.80;93.70;;;;;;5049573;28;20056;-78
2021/03/20 00:40:29;;;;;;;39.13;18.73;;;2.80;93.70;;;;;;5062226;28;20032;-76
2021/03/20 00:42:56;;;;;;;24.57;12.30;;;2.80;93.60;;;;;;5052265;28;20812;-78
2021/03/20 00:45:25;;;;;;;19.10;10.03;;;2.70;93.60;;;;;;5075037;28;20434;-76
2021/03/20 00:47:53;;;;;;;12.90;6.07;;;2.70;93.50;;;;;;5074232;28;20422;-76
2021/03/20 00:50:23;;;;;;;7.67;4.97;;;2.70;93.50;;;;;;5074262;28;20032;-77
2021/03/20 00:52:49;;;;;;;9.13;4.83;;;2.60;93.50;;;;;;5057897;28;20058;-80
2021/03/20 00:55:17;;;;;;;8.50;4.53;;;2.50;93.50;;;;;;5045740;28;20037;-76
2021/03/20 00:57:43;;;;;;;8.33;5.27;;;2.50;93.50;;;;;;5053785;28;20048;-79
2021/03/20 01:00:14;;;;;;;9.50;5.00;;;2.40;93.60;;;;;;5061132;28;20036;-79
2021/03/20 01:02:41;;;;;;;8.00;4.97;;;2.30;93.90;;;;;;5058478;28;20048;-77
2021/03/20 01:05:09;;;;;;;9.63;4.80;;;2.30;93.60;;;;;;5038766;28;20032;-79
2021/03/20 01:07:36;;;;;;;9.90;5.03;;;2.20;93.60;;;;;;5047110;28;20056;-80
2021/03/20 01:10:22;;;;;;;7.53;5.00;;;2.20;93.70;;;;;;5046336;28;20410;-78
2021/03/20 01:12:50;;;;;;;11.93;5.63;;;2.10;93.80;;;;;;5072759;28;20029;-77
2021/03/20 01:15:17;;;;;;;9.40;5.27;;;2.10;93.80;;;;;;5073726;28;20398;-77
2021/03/20 01:17:45;;;;;;;8.43;5.37;;;2.00;93.80;;;;;;5070900;28;20048;-78
2021/03/20 01:20:13;;;;;;;10.37;5.53;;;2.00;93.90;;;;;;5075207;28;20036;-81
2021/03/20 01:22:39;;;;;;;9.30;6.37;;;2.00;94.00;;;;;;5073460;28;20414;-79
2021/03/20 01:25:07;;;;;;;9.63;5.60;;;1.90;94.10;;;;;;5077162;28;20051;-79
2021/03/20 01:27:34;;;;;;;7.97;4.80;;;1.90;94.10;;;;;;5057162;28;20040;-76
2021/03/20 01:30:03;;;;;;;9.03;6.03;;;1.90;94.10;;;;;;5078024;28;20035;-77
2021/03/20 01:32:29;;;;;;;8.57;5.07;;;1.80;94.10;;;;;;5059686;28;20041;-77
2021/03/20 01:34:56;;;;;;;8.50;5.37;;;1.80;94.10;;;;;;5077504;28;20024;-77
2021/03/20 01:37:22;;;;;;;8.20;5.57;;;1.70;94.10;;;;;;5077352;28;20040;-78
2021/03/20 01:39:49;;;;;;;7.07;3.93;;;1.70;94.00;;;;;;5056983;28;20047;-79
2021/03/20 01:42:16;;;;;;;6.03;4.47;;;1.70;94.00;;;;;;5077001;28;21143;-78
2021/03/20 01:44:43;;;;;;;9.17;5.23;;;1.70;94.00;;;;;;5080267;28;21148;-78
2021/03/20 01:47:14;;;;;;;8.10;4.67;;;1.60;94.10;;;;;;5072206;28;20047;-77
2021/03/20 01:49:46;;;;;;;4.40;3.30;;;1.60;94.10;;;;;;5069340;28;20471;-78
2021/03/20 01:52:29;;;;;;;4.90;4.05;;;1.50;94.00;;;;;;5057003;28;20044;-77
2021/03/20 01:55:02;;;;;;;6.27;4.03;;;1.50;94.00;;;;;;5059246;28;20028;-77
2021/03/20 01:57:35;;;;;;;7.27;4.47;;;1.50;94.00;;;;;;5079468;28;20044;-78
2021/03/20 02:00:12;;;;;;;6.25;4.03;;;1.50;94.00;;;;;;5060987;28;20040;-78
2021/03/20 02:02:40;;;;;;;7.93;4.83;;;1.40;93.90;;;;;;5074759;28;20043;-77
2021/03/20 02:05:11;;;;;;;3.83;3.07;;;1.40;93.90;;;;;;5074637;28;20064;-77
2021/03/20 02:07:38;;;;;;;8.03;4.67;;;1.30;93.80;;;;;;5059024;28;20044;-79
2021/03/20 02:10:06;;;;;;;7.67;3.80;;;1.30;93.80;;;;;;5078202;28;20036;-79
2021/03/20 02:12:36;;;;;;;7.13;3.70;;;1.30;93.80;;;;;;5071012;28;20043;-78
2021/03/20 02:15:42;;;;;;;6.83;3.83;;;1.20;93.80;;;;;;5080896;28;20039;-78
2021/03/20 02:18:14;;;;;;;5.37;3.27;;;1.20;93.80;;;;;;5048532;28;20487;-77
2021/03/20 02:20:57;;;;;;;7.63;3.42;;;1.20;93.80;;;;;;5078353;28;20032;-82
2021/03/20 02:23:59;;;;;;;8.00;3.53;;;1.10;93.80;;;;;;5046914;28;20039;-79
2021/03/20 02:26:41;;;;;;;6.77;3.67;;;1.10;93.80;;;;;;5071973;28;20081;-75
2021/03/20 02:29:24;;;;;;;7.22;3.85;;;1.10;93.80;;;;;;5071369;28;20032;-75
2021/03/20 02:32:12;;;;;;;6.45;3.92;;;1.10;94.00;;;;;;5073119;28;20036;-74
2021/03/20 02:34:43;;;;;;;5.00;3.50;;;1.00;93.70;;;;;;5071843;28;20487;-74
2021/03/20 02:37:23;;;;;;;3.87;2.10;;;1.00;93.60;;;;;;5071246;28;20033;-76
2021/03/20 02:40:08;;;;;;;12.90;8.10;;;1.00;93.60;;;;;;5070701;28;20391;-77
2021/03/20 02:42:37;;;;;;;10.03;6.17;;;1.00;93.60;;;;;;5075293;28;20032;-76
2021/03/20 02:45:20;;;;;;;11.20;6.73;;;0.90;93.50;;;;;;5068809;28;20036;-77
2021/03/20 02:47:55;;;;;;;;;;;0.90;93.60;;;;;;5054631;28;20048;-79
2021/03/20 02:50:26;;;;;;;12.50;6.23;;;0.90;93.60;;;;;;5040087;28;20269;-77
2021/03/20 02:53:08;;;;;;;5.37;3.47;;;0.90;93.60;;;;;;5069905;28;20036;-77
2021/03/20 02:55:50;;;;;;;6.03;2.92;;;0.80;93.60;;;;;;5075060;28;20044;-80
2021/03/20 02:58:39;;;;;;;5.07;2.67;;;0.80;93.60;;;;;;5078411;28;20048;-80
2021/03/20 03:01:14;;;;;;;5.80;3.63;;;0.80;93.60;;;;;;5053613;28;20040;-79
2021/03/20 03:03:43;;;;;;;6.50;4.60;;;0.80;93.60;;;;;;5049806;28;20033;-80
2021/03/20 03:06:40;;;;;;;8.47;3.73;;;0.80;93.60;;;;;;5059691;28;20040;-80
2021/03/20 03:09:12;;;;;;;10.30;6.57;;;0.80;93.70;;;;;;5066685;28;20029;-80
2021/03/20 03:12:03;;;;;;;8.13;4.45;;;0.70;93.70;;;;;;5057578;28;20052;-79
2021/03/20 03:14:50;;;;;;;6.63;4.43;;;0.70;93.80;;;;;;5036770;28;20047;-79
2021/03/20 03:17:19;;;;;;;8.43;4.97;;;0.70;93.80;;;;;;5055892;28;20047;-79
2021/03/20 03:20:04;;;;;;;9.90;5.40;;;0.70;93.90;;;;;;5077157;28;20040;-80
2021/03/20 03:22:41;;;;;;;7.10;4.70;;;0.70;93.90;;;;;;5037972;28;20035;-80
2021/03/20 03:25:11;;;;;;;7.80;5.10;;;0.70;93.90;;;;;;5070138;28;20029;-80
2021/03/20 03:27:41;;;;;;;6.50;4.67;;;0.60;93.90;;;;;;5043262;28;20040;-80
2021/03/20 03:30:14;;;;;;;6.80;4.10;;;0.60;93.90;;;;;;5058073;28;20340;-80
2021/03/20 03:32:45;;;;;;;6.27;4.43;;;0.60;94.00;;;;;;5052433;28;20498;-78
2021/03/20 03:35:19;;;;;;;8.17;4.63;;;0.60;94.00;;;;;;5055549;28;20032;-78
2021/03/20 03:38:04;;;;;;;6.10;3.70;;;0.60;94.00;;;;;;5056562;28;20043;-78
2021/03/20 03:40:37;;;;;;;4.37;3.03;;;0.50;94.00;;;;;;5039527;28;20040;-78
2021/03/20 03:43:03;;;;;;;6.47;3.72;;;0.50;93.90;;;;;;5074867;28;20037;-78
2021/03/20 03:45:30;;;;;;;6.60;4.07;;;0.50;94.00;;;;;;5075121;28;20032;-78
2021/03/20 03:47:59;;;;;;;6.07;4.00;;;0.40;94.20;;;;;;5032377;28;20037;-78
2021/03/20 03:50:29;;;;;;;5.50;3.80;;;0.40;94.00;;;;;;5054176;28;20032;-77
2021/03/20 03:52:56;;;;;;;5.17;3.47;;;0.40;94.00;;;;;;5069898;28;20060;-78
2021/03/20 03:55:23;;;;;;;4.50;2.90;;;0.40;94.00;;;;;;5072520;28;20032;-80
2021/03/20 03:58:11;;;;;;;5.73;3.10;;;0.30;93.90;;;;;;5025327;28;20071;-78
2021/03/20 04:00:49;;;;;;;5.87;3.97;;;0.30;94.00;;;;;;5052266;28;20045;-78
2021/03/20 04:03:38;;;;;;;5.23;3.30;;;0.30;93.90;;;;;;5069960;28;20040;-76
2021/03/20 04:06:34;;;;;;;7.03;3.73;;;0.30;94.00;;;;;;5044488;28;20041;-77
2021/03/20 04:09:26;;;;;;;25.47;15.47;;;0.20;93.90;;;;;;5043135;28;20037;-78
2021/03/20 04:12:13;;;;;;;13.47;7.83;;;0.20;93.90;;;;;;5068667;28;20044;-78
2021/03/20 04:14:58;;;;;;;8.93;6.30;;;0.20;93.90;;;;;;5054480;28;20045;-78
2021/03/20 04:17:49;;;;;;;6.93;4.00;;;0.20;93.90;;;;;;5033201;28;20040;-78
2021/03/20 04:20:18;;;;;;;6.90;3.90;;;0.20;93.90;;;;;;5050033;28;20044;-79
2021/03/20 04:23:07;;;;;;;5.83;3.67;;;0.10;93.80;;;;;;5052680;28;20040;-78
2021/03/20 04:25:43;;;;;;;4.27;3.53;;;0.10;93.80;;;;;;5053157;28;20040;-76
2021/03/20 04:28:38;;;;;;;3.27;2.10;;;0.10;93.80;;;;;;5054258;28;20049;-78
2021/03/20 04:31:16;;;;;;;4.00;3.03;;;0.10;93.80;;;;;;5050690;28;20029;-77
2021/03/20 04:33:50;;;;;;;9.37;5.43;;;0.00;93.80;;;;;;5072259;28;20036;-77
2021/03/20 04:36:34;;;;;;;9.73;5.47;;;0.00;93.80;;;;;;5032048;28;20024;-77
2021/03/20 04:39:02;;;;;;;11.93;5.80;;;0.00;93.80;;;;;;5070052;28;20895;-77
2021/03/20 04:41:30;;;;;;;9.87;6.10;;;0.00;93.80;;;;;;5042796;28;20037;-77
2021/03/20 04:43:57;;;;;;;6.80;4.77;;;-0.10;93.80;;;;;;5054650;28;20048;-79
2021/03/20 04:46:29;;;;;;;4.73;3.50;;;0.00;93.90;;;;;;5049175;28;20047;-78
2021/03/20 04:49:25;;;;;;;4.60;3.08;;;-0.10;93.80;;;;;;5050674;28;20036;-79
2021/03/20 04:51:59;;;;;;;5.13;2.90;;;-0.10;93.80;;;;;;5075646;28;20037;-79
2021/03/20 04:54:27;;;;;;;4.57;3.57;;;-0.10;93.80;;;;;;5056543;28;20051;-78
2021/03/20 04:57:03;;;;;;;5.97;3.47;;;-0.10;93.80;;;;;;5074635;28;20031;-77
2021/03/20 04:59:47;;;;;;;4.30;2.70;;;-0.10;93.80;;;;;;5055791;28;20036;-79
2021/03/20 05:02:40;;;;;;;6.50;3.30;;;-0.10;93.80;;;;;;5058269;28;20041;-79
2021/03/20 05:05:14;;;;;;;;;;;-0.20;93.80;;;;;;5055531;28;20036;-78
2021/03/20 05:07:41;;;;;;;4.63;2.63;;;-0.10;93.80;;;;;;5058996;28;19916;-79
2021/03/20 05:10:15;;;;;;;4.20;2.97;;;-0.20;93.70;;;;;;5048798;28;20049;-78
2021/03/20 05:12:45;;;;;;;5.07;2.97;;;-0.20;94.00;;;;;;5030363;28;20033;-78
2021/03/20 05:15:28;;;;;;;11.40;6.47;;;-0.20;93.70;;;;;;5032779;28;20021;-78
2021/03/20 05:17:54;;;;;;;5.88;3.97;;;-0.20;93.70;;;;;;5032499;28;20487;-78
2021/03/20 05:20:21;;;;;;;7.17;3.30;;;-0.20;93.70;;;;;;5053408;28;20047;-77
2021/03/20 05:22:48;;;;;;;7.23;3.77;;;-0.20;93.70;;;;;;5025502;28;20044;-78
2021/03/20 05:25:17;;;;;;;7.27;3.23;;;-0.20;93.70;;;;;;5051417;28;20048;-78
2021/03/20 05:27:43;;;;;;;10.87;5.50;;;-0.20;93.70;;;;;;5037172;28;20041;-78
2021/03/20 05:30:11;;;;;;;8.63;4.97;;;-0.30;93.60;;;;;;5013070;28;20033;-77
2021/03/20 05:32:37;;;;;;;6.43;3.33;;;-0.30;93.60;;;;;;5054390;28;20036;-78
2021/03/20 05:35:09;;;;;;;4.43;3.53;;;-0.30;93.60;;;;;;5037353;28;20040;-77
2021/03/20 05:37:39;;;;;;;6.97;3.05;;;-0.30;93.70;;;;;;5053096;28;20060;-78
2021/03/20 05:40:36;;;;;;;3.90;2.10;;;-0.30;93.60;;;;;;5035062;28;20051;-77
2021/03/20 05:43:03;;;;;;;6.93;3.37;;;-0.30;93.70;;;;;;5018024;28;20041;-77
2021/03/20 05:45:36;;;;;;;5.00;2.73;;;-0.30;93.60;;;;;;5024569;28;20483;-77
2021/03/20 05:48:28;;;;;;;4.27;2.70;;;-0.30;93.70;;;;;;5053000;28;20044;-77
2021/03/20 05:51:29;;;;;;;8.10;3.17;;;-0.30;93.70;;;;;;5031910;28;20032;-77
2021/03/20 05:53:59;;;;;;;6.97;4.03;;;-0.30;93.60;;;;;;5051093;28;20032;-77
2021/03/20 05:56:31;;;;;;;4.97;3.70;;;-0.30;93.60;;;;;;5033454;28;20460;-77
2021/03/20 05:59:04;;;;;;;3.75;3.00;;;-0.30;93.70;;;;;;5036323;28;20527;-77
2021/03/20 06:01:50;;;;;;;3.72;3.25;;;-0.30;93.60;;;;;;5032757;28;20036;-76
2021/03/20 06:04:41;;;;;;;6.17;3.33;;;-0.30;93.60;;;;;;5017061;28;20348;-77
2021/03/20 06:07:47;;;;;;;6.07;3.77;;;-0.20;93.60;;;;;;5053039;28;20040;-77
2021/03/20 06:10:36;;;;;;;7.83;4.17;;;-0.30;93.70;;;;;;5059623;28;20040;-77
2021/03/20 06:13:40;;;;;;;7.67;3.77;;;-0.20;93.70;;;;;;5054547;28;20033;-77
2021/03/20 06:16:28;;;;;;;10.17;4.93;;;-0.20;93.70;;;;;;5072433;28;20035;-77
2021/03/20 06:19:40;;;;;;;7.60;4.00;;;-0.10;93.80;;;;;;5053883;28;20048;-77
2021/03/20 06:22:43;;;;;;;5.68;3.88;;;0.00;93.70;;;;;;5053085;28;20039;-77
2021/03/20 06:25:33;;;;;;;7.03;3.90;;;0.20;93.60;;;;;;5017476;28;20040;-77
2021/03/20 06:28:00;;;;;;;8.17;4.77;;;0.40;93.60;;;;;;5050640;28;20408;-78
2021/03/20 06:30:37;;;;;;;6.17;4.00;;;0.60;93.50;;;;;;5052181;28;20356;-77
2021/03/20 06:33:21;;;;;;;7.93;3.93;;;0.70;93.30;;;;;;5054232;28;20032;-78
2021/03/20 06:35:57;;;;;;;9.10;3.33;;;0.90;93.20;;;;;;5057132;28;20051;-78
2021/03/20 06:38:36;;;;;;;5.77;3.33;;;1.10;93.00;;;;;;5072248;28;20032;-78
2021/03/20 06:41:25;;;;;;;5.93;2.90;;;1.20;92.90;;;;;;5051866;28;20040;-78
2021/03/20 06:44:00;;;;;;;4.10;2.83;;;1.40;92.80;;;;;;5056603;28;20391;-78
2021/03/20 06:46:31;;;;;;;4.93;2.57;;;1.60;92.60;;;;;;5056103;28;20035;-77
2021/03/20 06:48:58;;;;;;;5.37;2.40;;;1.70;92.40;;;;;;5054712;28;20048;-77
2021/03/20 06:51:25;;;;;;;4.33;2.70;;;1.80;92.30;;;;;;5037201;28;20040;-78
2021/03/20 06:54:04;;;;;;;5.90;2.50;;;2.00;92.10;;;;;;5072923;28;20025;-78
2021/03/20 06:56:36;;;;;;;5.87;2.30;;;2.10;91.90;;;;;;5056385;28;20037;-78
2021/03/20 06:59:13;;;;;;;5.28;2.08;;;2.30;91.80;;;;;;5074625;28;20399;-77
2021/03/20 07:02:03;;;;;;;5.03;2.00;;;2.40;91.50;;;;;;5074884;28;20040;-77
2021/03/20 07:04:32;;;;;;;3.00;1.57;;;2.60;91.30;;;;;;5071972;28;20048;-78
2021/03/20 07:07:56;;;;;;;3.87;1.70;;;2.70;91.00;;;;;;5077145;28;20048;-78
2021/03/20 07:10:23;;;;;;;4.72;2.00;;;2.80;90.50;;;;;;4958612;28;20146;-78
2021/03/20 07:13:04;;;;;;;3.03;1.90;;;2.90;89.20;;;;;;5005877;28;20030;-78
2021/03/20 07:15:31;;;;;;;3.13;1.40;;;3.00;88.90;;;;;;5042828;28;20040;-78
2021/03/20 07:18:34;;;;;;;3.67;1.50;;;3.10;88.10;;;;;;5050567;28;20595;-78
2021/03/20 07:21:02;;;;;;;2.58;1.20;;;3.20;87.00;;;;;;5037416;28;20036;-78
2021/03/20 07:23:29;;;;;;;4.87;1.20;;;3.30;86.90;;;;;;5071576;28;20044;-79
2021/03/20 07:26:09;;;;;;;3.57;1.60;;;3.40;86.70;;;;;;5072437;28;20043;-78
2021/03/20 07:28:36;;;;;;;4.93;1.57;;;3.50;85.00;;;;;;5053984;28;20048;-78
2021/03/20 07:31:09;;;;;;;3.33;1.37;;;3.60;84.40;;;;;;5038935;28;20028;-78
2021/03/20 07:33:47;;;;;;;3.35;1.45;;;3.70;82.80;;;;;;5038062;28;20499;-79
2021/03/20 07:36:31;;;;;;;4.53;1.20;;;3.80;82.80;;;;;;5052788;28;20035;-78
2021/03/20 07:39:13;;;;;;;3.33;1.00;;;3.90;81.80;;;;;;5056966;28;20037;-78
2021/03/20 07:41:54;;;;;;;2.17;0.90;;;4.00;81.60;;;;;;5073212;28;20040;-79
2021/03/20 07:44:23;;;;;;;2.50;1.00;;;4.10;81.40;;;;;;5055308;28;20502;-78
2021/03/20 07:46:50;;;;;;;4.37;1.20;;;4.30;81.60;;;;;;5040498;28;20573;-78
2021/03/20 07:49:24;;;;;;;3.97;1.50;;;4.40;80.60;;;;;;5031736;28;20043;-78
2021/03/20 07:51:55;;;;;;;4.43;1.47;;;4.50;80.60;;;;;;5070106;28;20024;-74
2021/03/20 07:54:29;;;;;;;5.97;1.30;;;4.70;80.40;;;;;;5051471;28;20032;-75
2021/03/20 07:57:15;;;;;;;6.03;1.83;;;4.80;80.20;;;;;;5068028;28;20041;-74
2021/03/20 07:59:53;;;;;;;6.93;2.23;;;5.00;79.60;;;;;;5037114;28;20044;-74
2021/03/20 08:02:27;;;;;;;3.70;1.80;;;5.10;78.90;;;;;;5052511;28;20048;-75
2021/03/20 08:05:00;;;;;;;5.17;2.13;;;5.10;76.50;;;;;;5071665;28;20048;-75
2021/03/20 08:07:38;;;;;;;3.53;1.70;;;5.10;74.60;;;;;;5054043;28;20474;-75
2021/03/20 08:10:29;;;;;;;4.10;1.30;;;5.20;74.80;;;;;;5058594;28;20036;-79
2021/03/20 08:13:01;;;;;;;11.53;3.73;;;5.30;74.90;;;;;;5066722;28;20487;-75
2021/03/20 08:15:38;;;;;;;4.23;1.70;;;5.40;74.10;;;;;;5071261;28;20032;-75
2021/03/20 08:18:20;;;;;;;3.87;2.00;;;5.50;74.00;;;;;;5055327;28;20029;-78
2021/03/20 08:20:58;;;;;;;3.07;1.50;;;5.50;73.80;;;;;;5075782;28;20388;-75
2021/03/20 08:23:33;;;;;;;3.13;1.40;;;5.60;73.70;;;;;;5071505;28;20111;-75
2021/03/20 08:26:33;;;;;;;3.60;1.70;;;5.70;73.20;;;;;;5089955;28;20043;-79
2021/03/20 08:29:10;;;;;;;4.73;1.70;;;5.80;72.40;;;;;;5076829;28;20086;-75
2021/03/20 08:32:04;;;;;;;3.60;1.97;;;5.90;71.90;;;;;;5079735;28;20032;-75
2021/03/20 08:35:04;;;;;;;3.80;1.70;;;6.00;72.00;;;;;;5058757;28;20025;-77
2021/03/20 08:37:54;;;;;;;3.77;1.40;;;6.20;72.30;;;;;;5074554;28;20051;-77
2021/03/20 08:41:02;;;;;;;5.90;1.60;;;6.40;72.20;;;;;;5073414;28;20036;-78
2021/03/20 08:43:56;;;;;;;4.77;1.30;;;6.50;70.70;;;;;;5039864;28;20051;-77
2021/03/20 08:46:52;;;;;;;3.50;1.57;;;6.60;70.90;;;;;;5052076;28;20032;-77
2021/03/20 08:49:40;;;;;;;3.70;1.85;;;6.70;70.80;;;;;;5076784;28;20052;-78
2021/03/20 08:52:30;;;;;;;3.13;1.80;;;6.70;70.30;;;;;;5074012;28;20028;-78
2021/03/20 08:55:13;;;;;;;3.70;2.10;;;6.80;69.60;;;;;;5058100;28;20387;-78
2021/03/20 08:57:45;;;;;;;;;;;6.90;69.60;;;;;;5069383;28;20067;-78
2021/03/20 09:00:20;;;;;;;4.32;1.30;;;7.00;69.50;;;;;;5074774;28;19908;-75
2021/03/20 09:02:50;;;;;;;3.08;1.40;;;7.10;67.90;;;;;;5076140;28;20040;-77
2021/03/20 09:05:25;;;;;;;4.00;1.93;;;7.00;67.00;;;;;;5073765;28;20040;-74
2021/03/20 09:07:58;;;;;;;4.13;1.55;;;7.10;66.60;;;;;;5067941;28;20040;-78
2021/03/20 09:10:31;;;;;;;3.78;2.28;;;7.00;66.20;;;;;;5071846;28;20040;-74
2021/03/20 09:13:03;;;;;;;4.20;2.20;;;7.10;65.60;;;;;;5076176;28;20048;-74
2021/03/20 09:15:33;;;;;;;4.28;2.67;;;7.20;65.70;;;;;;5072122;28;20040;-72
2021/03/20 09:18:04;;;;;;;4.18;2.28;;;7.30;65.20;;;;;;5073726;28;20020;-77
2021/03/20 09:20:49;;;;;;;4.35;1.80;;;7.40;64.50;;;;;;5055156;28;20514;-76
2021/03/20 09:23:40;;;;;;;3.72;2.42;;;7.50;64.50;;;;;;5057258;28;20040;-79
2021/03/20 09:26:10;;;;;;;4.18;1.40;;;7.60;63.40;;;;;;5078523;28;20036;-80
2021/03/20 09:28:52;;;;;;;3.28;1.67;;;7.60;63.70;;;;;;5055858;28;20036;-79
2021/03/20 09:31:28;;;;;;;4.10;2.08;;;7.70;63.30;;;;;;5059636;28;20040;-79
2021/03/20 09:33:56;;;;;;;2.42;1.27;;;7.70;62.60;;;;;;5072599;28;20041;-79
2021/03/20 09:36:40;;;;;;;2.05;0.95;;;7.80;62.70;;;;;;5049594;28;20028;-80
2021/03/20 09:39:31;;;;;;;3.95;1.10;;;7.90;62.80;;;;;;5046372;28;20044;-79
2021/03/20 09:42:01;;;;;;;2.38;1.30;;;8.00;62.40;;;;;;5044759;28;20044;-81
2021/03/20 09:44:31;;;;;;;2.60;1.25;;;8.10;60.90;;;;;;5058153;28;20044;-79
2021/03/20 09:46:59;;;;;;;2.70;1.95;;;8.10;60.50;;;;;;5053227;28;20043;-79
2021/03/20 09:49:25;;;;;;;3.17;1.60;;;8.20;60.40;;;;;;5050947;28;20052;-79
2021/03/20 09:51:56;;;;;;;2.50;1.50;;;8.10;60.40;;;;;;5056661;28;20043;-78
2021/03/20 09:54:26;;;;;;;3.47;1.50;;;8.20;61.00;;;;;;5053279;28;20028;-78
2021/03/20 09:57:06;;;;;;;2.90;1.45;;;8.30;61.30;;;;;;5075597;28;20024;-79
2021/03/20 09:59:35;;;;;;;3.22;1.73;;;8.40;60.80;;;;;;5059042;28;20487;-80
2021/03/20 10:02:09;;;;;;;4.43;2.20;;;8.40;59.70;;;;;;5053393;28;20021;-80
2021/03/20 10:04:55;;;;;;;3.78;1.88;;;8.50;59.20;;;;;;5056511;28;20402;-80
2021/03/20 10:07:22;;;;;;;3.40;1.50;;;8.50;59.10;;;;;;5059482;28;20055;-80
2021/03/20 10:09:57;;;;;;;4.35;2.20;;;8.60;59.40;;;;;;5056232;28;20052;-80
2021/03/20 10:12:29;;;;;;;3.30;1.30;;;8.60;57.90;;;;;;5074502;28;20028;-76
2021/03/20 10:15:06;;;;;;;3.28;2.00;;;8.70;58.70;;;;;;5071186;28;20475;-77
2021/03/20 10:17:56;;;;;;;2.90;1.60;;;8.80;57.80;;;;;;5039469;28;20043;-76
2021/03/20 10:20:34;;;;;;;3.65;1.45;;;8.90;59.00;;;;;;5051064;28;20032;-77
2021/03/20 10:23:07;;;;;;;3.72;1.98;;;9.20;58.60;;;;;;5030243;28;21271;-76
2021/03/20 10:25:35;;;;;;;3.03;1.35;;;9.50;59.40;;;;;;5076092;28;20048;-76
2021/03/20 10:28:04;;;;;;;2.67;1.15;;;9.80;57.50;;;;;;5071835;28;20044;-76
2021/03/20 10:30:33;;;;;;;1.92;1.02;;;9.90;56.10;;;;;;5077330;28;20372;-76
2021/03/20 10:33:08;;;;;;;2.83;1.15;;;10.10;56.40;;;;;;5074560;28;20051;-77
2021/03/20 10:35:38;;;;;;;1.67;0.70;;;10.10;54.60;;;;;;5038953;28;20032;-76
2021/03/20 10:38:23;;;;;;;1.80;0.90;;;10.30;53.70;;;;;;5055392;28;20046;-81
2021/03/20 10:40:57;;;;;;;2.25;0.95;;;10.50;54.70;;;;;;5078236;28;20032;-81
2021/03/20 10:43:25;;;;;;;2.72;0.82;;;10.70;53.80;;;;;;5073051;28;20028;-81
2021/03/20 10:45:51;;;;;;;1.40;0.90;;;10.90;52.70;;;;;;5049579;28;20076;-82
2021/03/20 10:48:26;;;;;;;1.85;0.80;;;11.10;53.10;;;;;;5056549;28;20391;-82
2021/03/20 10:51:19;;;;;;;3.80;0.75;;;11.40;51.70;;;;;;5073776;28;20118;-80
2021/03/20 10:53:46;;;;;;;;;;;11.80;52.80;;;;;;5052250;28;20040;-79
2021/03/20 10:56:32;;;;;;;2.05;0.88;;;12.20;50.90;;;;;;5078890;28;19907;-80
2021/03/20 10:59:00;;;;;;;1.88;1.08;;;12.60;51.20;;;;;;5057465;28;20039;-78
2021/03/20 11:01:35;;;;;;;2.25;0.90;;;12.90;49.90;;;;;;5077572;28;20048;-77
2021/03/20 11:04:03;;;;;;;3.67;1.35;;;13.20;49.90;;;;;;5054630;28;20036;-77
2021/03/20 11:06:30;;;;;;;1.75;1.02;;;13.60;49.40;;;;;;5051537;28;20037;-76
2021/03/20 11:09:11;;;;;;;2.55;1.20;;;13.90;49.10;;;;;;5058836;28;20036;-77
2021/03/20 11:11:40;;;;;;;2.22;0.90;;;14.20;48.80;;;;;;5074171;28;20048;-77
2021/03/20 11:14:19;;;;;;;2.17;1.25;;;14.60;48.80;;;;;;5056343;28;20352;-77
2021/03/20 11:16:51;;;;;;;2.80;1.23;;;15.00;47.30;;;;;;5075968;28;20028;-81
2021/03/20 11:19:40;;;;;;;2.05;1.25;;;15.20;46.10;;;;;;5079269;28;20032;-80
2021/03/20 11:22:18;;;;;;;2.92;1.55;;;15.50;46.00;;;;;;5039698;28;20028;-81
2021/03/20 11:24:56;;;;;;;3.55;1.70;;;15.90;45.30;;;;;;5072725;28;20059;-85
2021/03/20 11:27:26;;;;;;;3.42;1.35;;;16.30;42.80;;;;;;5059891;28;20039;-78
2021/03/20 11:30:13;;;;;;;3.95;1.40;;;16.40;41.80;;;;;;5052792;28;20037;-80
2021/03/20 11:32:43;;;;;;;3.50;1.88;;;16.40;42.70;;;;;;5060290;28;20384;-79
2021/03/20 11:35:30;;;;;;;2.30;1.30;;;16.60;42.50;;;;;;5056839;28;20021;-79
2021/03/20 11:38:01;;;;;;;2.42;1.50;;;16.90;42.40;;;;;;5055486;28;20499;-86
2021/03/20 11:40:41;;;;;;;3.15;1.80;;;17.30;42.10;;;;;;5061732;28;20407;-85
2021/03/20 11:43:27;;;;;;;2.75;1.92;;;17.50;41.10;;;;;;5057354;28;20047;-86
2021/03/20 11:46:08;;;;;;;4.45;1.50;;;17.60;39.40;;;;;;5054763;28;20491;-84
2021/03/20 11:48:36;;;;;;;2.42;1.30;;;17.60;40.50;;;;;;5036453;28;20021;-85
2021/03/20 11:51:06;;;;;;;3.05;1.88;;;17.80;40.90;;;;;;5077162;28;20035;-81
2021/03/20 11:53:43;;;;;;;2.65;1.52;;;18.10;39.30;;;;;;5064145;28;20036;-82
2021/03/20 11:56:27;;;;;;;2.28;1.63;;;18.40;39.40;;;;;;5060465;28;20052;-81
2021/03/20 11:59:00;;;;;;;3.35;2.85;;;18.80;38.10;;;;;;5073786;28;20044;-82
2021/03/20 12:01:32;;;;;;;4.05;2.58;;;19.10;37.00;;;;;;5073862;28;20039;-83
2021/03/20 12:04:09;;;;;;;5.25;2.30;;;19.10;37.10;;;;;;5043339;28;20045;-83
2021/03/20 12:06:37;;;;;;;3.63;2.25;;;19.20;36.20;;;;;;5076637;28;20047;-80
2021/03/20 12:09:22;;;;;;;2.00;1.27;;;19.30;37.30;;;;;;5055602;28;20056;-81
2021/03/20 12:11:49;;;;;;;2.22;1.35;;;19.60;36.90;;;;;;5072421;28;20075;-77
2021/03/20 12:14:42;;;;;;;2.33;1.27;;;19.90;36.40;;;;;;5073646;28;20032;-77
2021/03/20 12:17:08;;;;;;;;;;;20.30;36.00;;;;;;5071620;28;20048;-78
2021/03/20 12:19:59;;;;;;;1.83;1.35;;;20.50;35.40;;;;;;5071176;28;19915;-79
2021/03/20 12:22:48;;;;;;;2.00;1.05;;;20.70;34.70;;;;;;5070036;28;20028;-75
2021/03/20 12:25:26;;;;;;;2.42;1.80;;;20.80;33.70;;;;;;5062665;28;20133;-81
2021/03/20 12:28:30;;;;;;;1.75;1.30;;;20.60;33.40;;;;;;5072116;28;20032;-82
2021/03/20 12:31:00;;;;;;;3.42;1.20;;;20.60;33.80;;;;;;5061194;28;20052;-83
2021/03/20 12:33:28;;;;;;;3.80;1.55;;;20.80;33.40;;;;;;5069154;28;20036;-75
2021/03/20 12:35:54;;;;;;;2.45;1.30;;;20.90;33.60;;;;;;5070420;28;20653;-77
2021/03/20 12:38:27;;;;;;;2.53;1.30;;;21.20;34.00;;;;;;5068426;28;20495;-78
2021/03/20 12:40:59;;;;;;;2.58;1.75;;;21.50;33.40;;;;;;5070136;28;20411;-75
2021/03/20 12:43:35;;;;;;;2.20;1.00;;;21.80;32.80;;;;;;5070221;28;20103;-75
2021/03/20 12:46:06;;;;;;;2.15;1.40;;;22.00;32.60;;;;;;5055387;28;20395;-76
2021/03/20 12:48:39;;;;;;;2.30;1.20;;;22.30;32.30;;;;;;5069407;28;20024;-78
2021/03/20 12:51:11;;;;;;;2.53;1.40;;;22.30;31.00;;;;;;5068742;28;20451;-80
2021/03/20 12:53:37;;;;;;;;;;;22.50;32.10;;;;;;5050664;28;20055;-77
2021/03/20 12:56:04;;;;;;;3.42;1.98;;;22.90;32.00;;;;;;5071698;28;19916;-79
2021/03/20 12:58:30;;;;;;;15.63;12.30;;;23.20;31.40;;;;;;5072975;28;20045;-77
2021/03/20 13:00:57;;;;;;;4.10;3.22;;;23.30;31.00;;;;;;5070010;28;20036;-80
2021/03/20 13:03:24;;;;;;;2.08;1.50;;;23.30;30.60;;;;;;5074762;28;20039;-79
2021/03/20 13:05:50;;;;;;;1.20;0.80;;;23.50;30.00;;;;;;5076483;28;20501;-79
2021/03/20 13:08:17;;;;;;;1.50;0.80;;;23.70;28.60;;;;;;5074244;28;20515;-79
2021/03/20 13:10:43;;;;;;;1.27;0.73;;;23.70;27.40;;;;;;5051528;28;20052;-79
2021/03/20 13:13:10;;;;;;;2.58;1.00;;;23.50;26.70;;;;;;5029242;28;20036;-79
2021/03/20 13:15:37;;;;;;;1.52;1.13;;;23.30;28.20;;;;;;5036596;28;20041;-78
2021/03/20 13:18:03;;;;;;;1.98;1.42;;;23.40;29.00;;;;;;5054267;28;20036;-79
2021/03/20 13:20:30;;;;;;;2.17;1.48;;;23.60;28.80;;;;;;5021401;28;20045;-79
2021/03/20 13:22:56;;;;;;;2.25;1.33;;;23.70;28.90;;;;;;5038005;28;20515;-78
2021/03/20 13:25:33;;;;;;;1.98;1.30;;;23.80;28.60;;;;;;5055155;28;20033;-79
2021/03/20 13:28:01;;;;;;;2.70;1.17;;;23.80;28.50;;;;;;5054110;28;20036;-79
2021/03/20 13:30:31;;;;;;;1.20;0.90;;;23.30;28.90;;;;;;5029724;28;20047;-78
2021/03/20 13:32:58;;;;;;;2.05;1.10;;;22.40;29.30;;;;;;5022872;28;20392;-78
2021/03/20 13:35:30;;;;;;;1.95;0.98;;;21.20;29.20;;;;;;5039926;28;20029;-78
2021/03/20 13:37:56;;;;;;;2.53;1.20;;;20.10;30.30;;;;;;5037038;28;20040;-79